createdAt,value
2017-11-26T00:00:29.492Z,-0.6
2017-11-26T00:01:39.227Z,-0.56
2017-11-26T00:02:49.236Z,-0.63
2017-11-26T00:03:59.257Z,-0.62
2017-11-26T00:05:08.999Z,-0.59
2017-11-26T00:06:19.004Z,-0.6
2017-11-26T00:07:29.007Z,-0.6
2017-11-26T00:08:39.010Z,-0.57
2017-11-26T00:09:49.041Z,-0.66
2017-11-26T00:10:59.082Z,-0.67
2017-11-26T00:12:09.081Z,-0.64
2017-11-26T00:13:19.095Z,-0.74
2017-11-26T00:14:29.102Z,-0.72
2017-11-26T00:15:39.111Z,-0.7
2017-11-26T00:16:49.122Z,-0.72
2017-11-26T00:17:59.127Z,-0.74
2017-11-26T00:19:09.170Z,-0.72
2017-11-26T00:20:18.926Z,-0.77
2017-11-26T00:21:29.045Z,-0.74
2017-11-26T00:22:39.051Z,-0.77
2017-11-26T00:23:49.063Z,-0.72
2017-11-26T00:24:59.102Z,-0.81
2017-11-26T00:26:09.115Z,-0.81
2017-11-26T00:27:19.156Z,-0.91
2017-11-26T00:28:29.178Z,-0.93
2017-11-26T00:29:39.182Z,-0.81
2017-11-26T00:30:49.187Z,-0.97
2017-11-26T00:31:59.202Z,-0.97
2017-11-26T00:33:08.937Z,-0.94
2017-11-26T00:34:18.677Z,-1.03
2017-11-26T00:35:28.419Z,-1
2017-11-26T00:36:38.424Z,-1.17
2017-11-26T00:37:48.436Z,-1.17
2017-11-26T00:38:58.442Z,-1.07
2017-11-26T00:40:08.176Z,-1.22
2017-11-26T00:41:17.915Z,-1.18
2017-11-26T00:42:27.944Z,-1.22
2017-11-26T00:43:37.689Z,-1.19
2017-11-26T00:44:47.441Z,-1.22
2017-11-26T00:45:57.486Z,-1.22
2017-11-26T00:47:07.521Z,-1.15
2017-11-26T00:48:17.524Z,-1.15
2017-11-26T00:49:26.990Z,-1.19
2017-11-26T00:50:36.726Z,-1.17
2017-11-26T00:51:46.460Z,-1.18
2017-11-26T00:52:56.468Z,-1.17
2017-11-26T00:54:05.932Z,-1.07
2017-11-26T00:55:15.970Z,-1.15
2017-11-26T00:56:25.720Z,-1.09
2017-11-26T00:57:35.733Z,-1.07
2017-11-26T00:58:45.745Z,-1.03
2017-11-26T00:59:55.491Z,-1.06
2017-11-26T01:01:05.502Z,-1.01
2017-11-26T01:02:17.236Z,-0.82
2017-11-26T01:03:27.250Z,-0.91
2017-11-26T01:04:37.256Z,-0.77
2017-11-26T01:05:47.281Z,-0.78
2017-11-26T01:06:57.304Z,-0.77
2017-11-26T01:08:07.339Z,-0.72
2017-11-26T01:09:17.359Z,-0.7
2017-11-26T01:10:27.398Z,-0.74
2017-11-26T01:11:37.404Z,-0.72
2017-11-26T01:12:47.451Z,-0.59
2017-11-26T01:13:57.471Z,-0.64
2017-11-26T01:15:07.219Z,-0.57
2017-11-26T01:16:17.228Z,-0.54
2017-11-26T01:17:26.967Z,-0.53
2017-11-26T01:18:36.971Z,-0.59
2017-11-26T01:19:46.982Z,-0.51
2017-11-26T01:20:56.714Z,-0.44
2017-11-26T01:22:06.725Z,-0.45
2017-11-26T01:23:16.191Z,-0.39
2017-11-26T01:24:25.926Z,-0.39
2017-11-26T01:25:35.945Z,-0.44
2017-11-26T01:26:45.952Z,-0.41
2017-11-26T01:27:55.973Z,-0.35
2017-11-26T01:29:05.714Z,-0.33
2017-11-26T01:30:15.729Z,-0.3
2017-11-26T01:31:25.732Z,-0.3
2017-11-26T01:32:35.199Z,-0.28
2017-11-26T01:33:45.213Z,-0.2
2017-11-26T01:34:55.230Z,-0.15
2017-11-26T01:36:04.971Z,-0.2
2017-11-26T01:37:14.709Z,-0.1
2017-11-26T01:38:24.711Z,-0.05
2017-11-26T01:39:34.466Z,-0.03
2017-11-26T01:40:44.216Z,-0.03
2017-11-26T01:41:54.224Z,-0.05
2017-11-26T01:43:04.225Z,-0.02
2017-11-26T01:44:14.229Z,-0.13
2017-11-26T01:45:23.971Z,0.12
2017-11-26T01:46:33.710Z,0.02
2017-11-26T01:47:43.718Z,0.01
2017-11-26T01:48:53.734Z,0.08
2017-11-26T01:50:03.749Z,0.05
2017-11-26T01:51:13.753Z,0.09
2017-11-26T01:52:23.759Z,0.12
2017-11-26T01:53:33.822Z,0.18
2017-11-26T01:54:43.843Z,0.18
2017-11-26T01:55:53.872Z,0.26
2017-11-26T01:57:03.614Z,0.33
2017-11-26T01:58:13.382Z,0.34
2017-11-26T01:59:23.415Z,0.29
2017-11-26T02:00:33.425Z,0.34
2017-11-26T02:01:43.169Z,0.42
2017-11-26T02:02:53.181Z,0.33
2017-11-26T02:04:03.209Z,0.37
2017-11-26T02:05:12.959Z,0.37
2017-11-26T02:06:22.966Z,0.39
2017-11-26T02:07:32.966Z,0.45
2017-11-26T02:08:42.977Z,0.4
2017-11-26T02:09:52.990Z,0.4
2017-11-26T02:11:03.040Z,0.4
2017-11-26T02:12:13.044Z,0.42
2017-11-26T02:13:23.069Z,0.37
2017-11-26T02:14:33.076Z,0.36
2017-11-26T02:15:42.820Z,0.36
2017-11-26T02:16:52.569Z,0.37
2017-11-26T02:18:02.304Z,0.33
2017-11-26T02:19:12.318Z,0.45
2017-11-26T02:20:22.341Z,0.37
2017-11-26T02:21:32.345Z,0.37
2017-11-26T02:22:42.358Z,0.37
2017-11-26T02:23:52.381Z,0.33
2017-11-26T02:25:02.122Z,0.3
2017-11-26T02:26:12.144Z,0.34
2017-11-26T02:27:22.175Z,0.3
2017-11-26T02:28:32.193Z,0.33
2017-11-26T02:29:42.199Z,0.33
2017-11-26T02:30:52.212Z,0.26
2017-11-26T02:32:02.238Z,0.29
2017-11-26T02:33:12.263Z,0.31
2017-11-26T02:34:22.272Z,0.23
2017-11-26T02:35:32.340Z,0.15
2017-11-26T02:36:42.350Z,0.2
2017-11-26T02:37:52.373Z,0.2
2017-11-26T02:39:02.419Z,0.16
2017-11-26T02:40:12.452Z,0.15
2017-11-26T02:41:22.773Z,0.05
2017-11-26T02:42:32.816Z,0.12
2017-11-26T02:43:42.861Z,0.18
2017-11-26T02:44:52.900Z,0.18
2017-11-26T02:46:02.925Z,0.18
2017-11-26T02:47:12.414Z,0.18
2017-11-26T02:48:22.439Z,0.23
2017-11-26T02:49:32.452Z,0.23
2017-11-26T02:50:42.466Z,0.15
2017-11-26T02:51:52.225Z,0.11
2017-11-26T02:53:02.268Z,0.13
2017-11-26T02:54:12.289Z,0.09
2017-11-26T02:55:22.299Z,0.13
2017-11-26T02:56:32.322Z,0.08
2017-11-26T02:57:42.336Z,0.16
2017-11-26T02:58:52.372Z,0.19
2017-11-26T03:00:02.388Z,0.16
2017-11-26T03:01:12.427Z,0.16
2017-11-26T03:02:22.446Z,0.15
2017-11-26T03:03:32.452Z,0.18
2017-11-26T03:04:41.988Z,0.2
2017-11-26T03:05:52.000Z,0.11
2017-11-26T03:07:01.739Z,0.19
2017-11-26T03:08:11.745Z,0.15
2017-11-26T03:09:21.749Z,0.09
2017-11-26T03:10:35.510Z,0.16
2017-11-26T03:11:45.516Z,0.15
2017-11-26T03:12:55.518Z,0.05
2017-11-26T03:14:05.528Z,0.06
2017-11-26T03:15:15.273Z,0.09
2017-11-26T03:16:25.602Z,0.11
2017-11-26T03:17:35.625Z,0.08
2017-11-26T03:18:45.644Z,0.06
2017-11-26T03:19:55.380Z,0.15
2017-11-26T03:21:05.118Z,0.02
2017-11-26T03:22:15.173Z,0.11
2017-11-26T03:23:25.185Z,0.08
2017-11-26T03:24:35.200Z,0.05
2017-11-26T03:25:45.216Z,0.08
2017-11-26T03:26:55.229Z,0.05
2017-11-26T03:28:07.241Z,0.12
2017-11-26T03:29:16.975Z,0.06
2017-11-26T03:30:26.990Z,0.02
2017-11-26T03:31:36.747Z,0.11
2017-11-26T03:32:46.769Z,0.11
2017-11-26T03:33:56.830Z,0.08
2017-11-26T03:35:06.844Z,0.08
2017-11-26T03:36:16.849Z,-0.02
2017-11-26T03:37:26.581Z,0
2017-11-26T03:38:36.584Z,0.08
2017-11-26T03:39:46.618Z,0.05
2017-11-26T03:40:56.631Z,-0.02
2017-11-26T03:42:06.655Z,0.02
2017-11-26T03:43:16.662Z,-0.05
2017-11-26T03:44:26.663Z,0.02
2017-11-26T03:45:36.675Z,0
2017-11-26T03:46:46.694Z,-0.06
2017-11-26T03:47:56.429Z,0.01
2017-11-26T03:49:06.438Z,0
2017-11-26T03:50:16.447Z,0
2017-11-26T03:51:26.185Z,0.11
2017-11-26T03:52:36.205Z,0.09
2017-11-26T03:53:46.225Z,0.16
2017-11-26T03:54:56.232Z,0.19
2017-11-26T03:56:06.238Z,0.19
2017-11-26T03:57:16.256Z,0.13
2017-11-26T03:58:25.998Z,0.33
2017-11-26T03:59:36.006Z,0.29
2017-11-26T04:03:26.134Z,0.48
2017-11-26T04:04:36.150Z,0.42
2017-11-26T04:05:46.157Z,0.45
2017-11-26T04:06:56.176Z,0.45
2017-11-26T04:08:06.181Z,0.42
2017-11-26T04:09:16.186Z,0.4
2017-11-26T04:10:26.193Z,0.39
2017-11-26T04:11:36.202Z,0.39
2017-11-26T04:12:45.982Z,0.4
2017-11-26T04:13:55.988Z,0.45
2017-11-26T04:15:05.993Z,0.39
2017-11-26T04:16:16.016Z,0.36
2017-11-26T04:17:26.037Z,0.39
2017-11-26T04:18:36.063Z,0.34
2017-11-26T04:19:46.073Z,0.31
2017-11-26T04:20:56.088Z,0.31
2017-11-26T04:22:06.116Z,0.34
2017-11-26T04:23:16.136Z,0.27
2017-11-26T04:24:26.165Z,0.34
2017-11-26T04:25:36.174Z,0.31
2017-11-26T04:26:46.193Z,0.29
2017-11-26T04:27:56.227Z,0.33
2017-11-26T04:29:06.239Z,0.31
2017-11-26T04:30:16.254Z,0.3
2017-11-26T04:31:26.259Z,0.24
2017-11-26T04:32:36.276Z,0.26
2017-11-26T04:33:46.283Z,0.26
2017-11-26T04:34:56.021Z,0.13
2017-11-26T04:36:06.030Z,0.23
2017-11-26T04:37:15.764Z,0.23
2017-11-26T04:38:25.841Z,0.16
2017-11-26T04:39:35.857Z,0.09
2017-11-26T04:40:45.602Z,0.12
2017-11-26T04:41:55.338Z,0.05
2017-11-26T04:43:05.072Z,0.01
2017-11-26T04:44:15.083Z,0.06
2017-11-26T04:45:25.104Z,0.02
2017-11-26T04:46:35.109Z,-0.02
2017-11-26T04:47:45.143Z,-0.03
2017-11-26T04:48:55.180Z,0.08
2017-11-26T04:50:04.921Z,0.05
2017-11-26T04:51:14.958Z,0.06
2017-11-26T04:52:24.957Z,-0.03
2017-11-26T04:53:34.961Z,0.06
2017-11-26T04:54:44.989Z,0.05
2017-11-26T04:55:54.996Z,0.09
2017-11-26T04:57:05.015Z,0.06
2017-11-26T04:58:15.029Z,0.05
2017-11-26T04:59:25.034Z,0.12
2017-11-26T05:00:35.055Z,0.12
2017-11-26T05:01:45.072Z,0.11
2017-11-26T05:02:55.092Z,0.19
2017-11-26T05:04:05.105Z,0.16
2017-11-26T05:05:14.846Z,0.18
2017-11-26T05:06:24.583Z,0.11
2017-11-26T05:07:34.601Z,0.29
2017-11-26T05:08:44.638Z,0.34
2017-11-26T05:09:54.653Z,0.3
2017-11-26T05:11:04.665Z,0.3
2017-11-26T05:12:14.672Z,0.34
2017-11-26T05:13:24.678Z,0.36
2017-11-26T05:14:34.702Z,0.33
2017-11-26T05:15:44.711Z,0.4
2017-11-26T05:16:54.715Z,0.44
2017-11-26T05:18:04.733Z,0.33
2017-11-26T05:19:14.738Z,0.3
2017-11-26T05:20:24.757Z,0.44
2017-11-26T05:21:34.778Z,0.47
2017-11-26T05:22:44.780Z,0.48
2017-11-26T05:23:54.525Z,0.45
2017-11-26T05:25:04.266Z,0.45
2017-11-26T05:26:14.273Z,0.49
2017-11-26T05:27:24.289Z,0.47
2017-11-26T05:28:34.024Z,0.44
2017-11-26T05:29:44.043Z,0.44
2017-11-26T05:30:54.104Z,0.49
2017-11-26T05:32:04.109Z,0.49
2017-11-26T05:33:14.128Z,0.51
2017-11-26T05:34:24.141Z,0.55
2017-11-26T05:35:34.167Z,0.51
2017-11-26T05:36:44.185Z,0.51
2017-11-26T05:37:53.922Z,0.45
2017-11-26T05:39:03.934Z,0.51
2017-11-26T05:40:13.674Z,0.49
2017-11-26T05:41:23.705Z,0.49
2017-11-26T05:42:33.721Z,0.49
2017-11-26T05:43:43.733Z,0.52
2017-11-26T05:44:53.744Z,0.49
2017-11-26T05:46:03.768Z,0.59
2017-11-26T05:47:13.510Z,0.66
2017-11-26T05:48:23.512Z,0.63
2017-11-26T05:49:33.520Z,0.66
2017-11-26T05:50:43.534Z,0.59
2017-11-26T05:51:53.277Z,0.59
2017-11-26T05:53:03.293Z,0.63
2017-11-26T05:54:13.308Z,0.58
2017-11-26T05:55:23.064Z,0.66
2017-11-26T05:56:33.074Z,0.59
2017-11-26T05:57:43.104Z,0.66
2017-11-26T05:58:53.110Z,0.66
2017-11-26T06:00:03.120Z,0.68
2017-11-26T06:01:13.125Z,0.67
2017-11-26T06:02:23.151Z,0.71
2017-11-26T06:03:33.163Z,0.7
2017-11-26T06:04:42.901Z,0.77
2017-11-26T06:05:52.907Z,0.61
2017-11-26T06:07:02.942Z,0.7
2017-11-26T06:08:12.988Z,0.67
2017-11-26T06:09:23.016Z,0.66
2017-11-26T06:10:33.027Z,0.67
2017-11-26T06:11:43.054Z,0.71
2017-11-26T06:12:53.066Z,0.59
2017-11-26T06:14:03.106Z,0.66
2017-11-26T06:15:13.116Z,0.73
2017-11-26T06:16:23.124Z,0.68
2017-11-26T06:17:33.140Z,0.64
2017-11-26T06:18:43.165Z,0.76
2017-11-26T06:19:52.905Z,0.67
2017-11-26T06:21:02.920Z,0.68
2017-11-26T06:22:12.937Z,0.76
2017-11-26T06:23:22.956Z,0.68
2017-11-26T06:24:33.013Z,0.71
2017-11-26T06:25:43.040Z,0.74
2017-11-26T06:26:52.782Z,0.73
2017-11-26T06:28:02.792Z,0.67
2017-11-26T06:29:12.795Z,0.84
2017-11-26T06:30:22.533Z,0.78
2017-11-26T06:31:32.541Z,0.77
2017-11-26T06:32:42.330Z,0.86
2017-11-26T06:33:52.353Z,0.78
2017-11-26T06:35:02.102Z,0.88
2017-11-26T06:36:12.107Z,0.82
2017-11-26T06:37:22.140Z,0.88
2017-11-26T06:38:32.143Z,0.84
2017-11-26T06:39:42.159Z,0.86
2017-11-26T06:40:52.261Z,0.89
2017-11-26T06:42:02.277Z,0.99
2017-11-26T06:43:12.025Z,0.94
2017-11-26T06:44:22.041Z,1.04
2017-11-26T06:45:32.050Z,1.07
2017-11-26T06:46:41.790Z,1.09
2017-11-26T06:47:51.804Z,1.09
2017-11-26T06:49:01.814Z,1.14
2017-11-26T06:50:11.861Z,1.14
2017-11-26T06:51:21.876Z,1.14
2017-11-26T06:52:31.896Z,1.12
2017-11-26T06:53:41.907Z,1.16
2017-11-26T06:54:51.920Z,1.22
2017-11-26T06:56:01.652Z,1.12
2017-11-26T06:57:11.121Z,1.21
2017-11-26T06:58:21.138Z,1.22
2017-11-26T06:59:31.164Z,1.09
2017-11-26T07:00:40.637Z,1.12
2017-11-26T07:01:50.656Z,1.1
2017-11-26T07:03:00.668Z,1.02
2017-11-26T07:04:10.417Z,1.07
2017-11-26T07:05:20.419Z,1.06
2017-11-26T07:06:30.444Z,0.99
2017-11-26T07:07:40.183Z,1.02
2017-11-26T07:08:50.203Z,1.03
2017-11-26T07:10:00.225Z,0.99
2017-11-26T07:11:09.963Z,0.96
2017-11-26T07:12:19.979Z,0.91
2017-11-26T07:13:29.997Z,0.94
2017-11-26T07:14:40.049Z,0.91
2017-11-26T07:15:50.067Z,0.92
2017-11-26T07:17:00.145Z,0.96
2017-11-26T07:18:09.883Z,0.99
2017-11-26T07:19:19.896Z,0.95
2017-11-26T07:20:29.920Z,0.95
2017-11-26T07:21:39.942Z,0.94
2017-11-26T07:22:49.680Z,1
2017-11-26T07:23:59.691Z,1
2017-11-26T07:25:09.433Z,0.99
2017-11-26T07:26:19.445Z,1
2017-11-26T07:27:29.186Z,0.99
2017-11-26T07:28:39.211Z,1.07
2017-11-26T07:29:49.256Z,1.03
2017-11-26T07:30:59.001Z,1.07
2017-11-26T07:32:09.017Z,1.06
2017-11-26T07:33:19.056Z,1.04
2017-11-26T07:34:28.812Z,1.18
2017-11-26T07:35:38.829Z,1.18
2017-11-26T07:36:48.574Z,1.09
2017-11-26T07:37:58.581Z,1.16
2017-11-26T07:39:08.592Z,1.16
2017-11-26T07:40:18.608Z,1.16
2017-11-26T07:41:28.348Z,1.06
2017-11-26T07:42:38.362Z,1.06
2017-11-26T07:43:48.126Z,1.07
2017-11-26T07:44:58.134Z,1.09
2017-11-26T07:46:08.146Z,1.04
2017-11-26T07:47:18.173Z,1.14
2017-11-26T07:48:28.182Z,1.21
2017-11-26T07:49:38.198Z,1.21
2017-11-26T07:50:48.208Z,1.21
2017-11-26T07:51:58.220Z,1.1
2017-11-26T07:53:07.958Z,1.2
2017-11-26T07:54:17.989Z,1.2
2017-11-26T07:55:28.010Z,1.22
2017-11-26T07:56:38.030Z,1.3
2017-11-26T07:57:48.052Z,1.22
2017-11-26T07:58:57.519Z,1.31
2017-11-26T08:00:07.536Z,1.3
2017-11-26T08:01:17.583Z,1.3
2017-11-26T08:02:27.592Z,1.31
2017-11-26T08:03:37.610Z,1.32
2017-11-26T08:04:47.648Z,1.43
2017-11-26T08:05:57.659Z,1.43
2017-11-26T08:07:07.132Z,1.48
2017-11-26T08:08:17.137Z,1.56
2017-11-26T08:09:27.160Z,1.57
2017-11-26T08:10:37.166Z,1.52
2017-11-26T08:11:47.171Z,1.52
2017-11-26T08:12:57.176Z,1.57
2017-11-26T08:14:06.917Z,1.58
2017-11-26T08:15:16.942Z,1.74
2017-11-26T08:16:26.958Z,1.71
2017-11-26T08:17:36.970Z,1.76
2017-11-26T08:18:46.979Z,1.74
2017-11-26T08:19:56.720Z,1.82
2017-11-26T08:21:06.739Z,1.84
2017-11-26T08:22:16.749Z,1.85
2017-11-26T08:23:26.485Z,1.92
2017-11-26T08:24:36.495Z,2.01
2017-11-26T08:25:45.969Z,2.01
2017-11-26T08:26:55.980Z,2
2017-11-26T08:28:06.001Z,2.12
2017-11-26T08:29:16.007Z,2.22
2017-11-26T08:30:25.741Z,2.21
2017-11-26T08:31:35.757Z,2.23
2017-11-26T08:32:45.777Z,2.32
2017-11-26T08:33:55.791Z,2.26
2017-11-26T08:35:05.528Z,2.36
2017-11-26T08:36:15.540Z,2.34
2017-11-26T08:37:25.293Z,2.43
2017-11-26T08:38:35.030Z,2.4
2017-11-26T08:39:45.046Z,2.4
2017-11-26T08:40:54.802Z,2.41
2017-11-26T08:42:04.815Z,2.5
2017-11-26T08:43:14.835Z,2.54
2017-11-26T08:44:24.858Z,2.46
2017-11-26T08:45:34.598Z,2.41
2017-11-26T08:46:44.613Z,2.4
2017-11-26T08:47:54.630Z,2.41
2017-11-26T08:49:04.652Z,2.36
2017-11-26T08:50:14.131Z,2.34
2017-11-26T08:51:24.192Z,2.34
2017-11-26T08:52:34.209Z,2.37
2017-11-26T08:53:44.226Z,2.36
2017-11-26T08:54:53.973Z,2.4
2017-11-26T08:56:03.983Z,2.43
2017-11-26T08:57:13.997Z,2.37
2017-11-26T08:58:24.008Z,2.4
2017-11-26T08:59:33.761Z,2.4
2017-11-26T09:00:43.796Z,2.46
2017-11-26T09:01:53.810Z,2.52
2017-11-26T09:03:03.821Z,2.5
2017-11-26T09:04:13.864Z,2.51
2017-11-26T09:05:23.877Z,2.47
2017-11-26T09:06:33.343Z,2.54
2017-11-26T09:07:42.808Z,2.52
2017-11-26T09:08:52.818Z,2.52
2017-11-26T09:10:02.829Z,2.51
2017-11-26T09:11:12.831Z,2.59
2017-11-26T09:12:22.883Z,2.55
2017-11-26T09:13:32.954Z,2.59
2017-11-26T09:14:42.960Z,2.65
2017-11-26T09:15:52.981Z,2.68
2017-11-26T09:17:02.241Z,2.65
2017-11-26T09:18:11.997Z,2.7
2017-11-26T09:19:22.059Z,2.64
2017-11-26T09:20:32.067Z,2.68
2017-11-26T09:21:41.809Z,2.7
2017-11-26T09:22:51.849Z,2.77
2017-11-26T09:24:01.855Z,2.76
2017-11-26T09:25:11.053Z,2.76
2017-11-26T09:26:20.249Z,2.77
2017-11-26T09:27:29.985Z,2.77
2017-11-26T09:28:40.033Z,2.76
2017-11-26T09:29:50.041Z,2.87
2017-11-26T09:31:00.065Z,2.91
2017-11-26T09:32:10.082Z,2.88
2017-11-26T09:33:20.092Z,2.83
2017-11-26T09:34:30.108Z,2.88
2017-11-26T09:35:39.589Z,2.85
2017-11-26T09:36:49.327Z,2.83
2017-11-26T09:37:59.328Z,3.01
2017-11-26T09:39:09.099Z,2.98
2017-11-26T09:40:19.099Z,2.97
2017-11-26T09:41:29.112Z,2.98
2017-11-26T09:42:39.172Z,3.05
2017-11-26T09:43:49.195Z,3.05
2017-11-26T09:44:59.202Z,3.08
2017-11-26T09:46:08.948Z,3.15
2017-11-26T09:47:18.984Z,3.27
2017-11-26T09:48:28.729Z,3.24
2017-11-26T09:49:38.738Z,3.33
2017-11-26T09:50:48.476Z,3.41
2017-11-26T09:51:58.208Z,3.41
2017-11-26T09:53:07.964Z,3.43
2017-11-26T09:54:18.006Z,3.46
2017-11-26T09:55:28.026Z,3.52
2017-11-26T09:56:38.065Z,3.55
2017-11-26T09:57:47.536Z,3.56
2017-11-26T09:58:57.545Z,3.63
2017-11-26T10:00:07.577Z,3.55
2017-11-26T10:01:17.589Z,3.61
2017-11-26T10:02:27.607Z,3.7
2017-11-26T10:03:37.631Z,3.67
2017-11-26T10:04:47.641Z,3.55
2017-11-26T10:05:57.107Z,3.56
2017-11-26T10:07:07.117Z,3.55
2017-11-26T10:08:17.137Z,3.52
2017-11-26T10:09:27.153Z,3.5
2017-11-26T10:10:36.627Z,3.48
2017-11-26T10:11:46.645Z,3.53
2017-11-26T10:12:56.651Z,3.53
2017-11-26T10:14:06.664Z,3.56
2017-11-26T10:15:16.684Z,3.59
2017-11-26T10:16:26.715Z,3.55
2017-11-26T10:17:36.769Z,3.55
2017-11-26T10:18:46.780Z,3.4
2017-11-26T10:19:56.787Z,3.33
2017-11-26T10:21:06.529Z,3.24
2017-11-26T10:22:16.536Z,3.22
2017-11-26T10:23:26.550Z,3.12
2017-11-26T10:24:36.308Z,3.12
2017-11-26T10:25:46.056Z,3
2017-11-26T10:26:56.066Z,3.05
2017-11-26T10:28:06.082Z,3.01
2017-11-26T10:29:15.840Z,3.01
2017-11-26T10:30:25.877Z,3.12
2017-11-26T10:31:35.621Z,2.98
2017-11-26T10:32:45.377Z,2.98
2017-11-26T10:33:55.386Z,3
2017-11-26T10:35:05.393Z,2.95
2017-11-26T10:36:15.405Z,2.95
2017-11-26T10:37:25.422Z,3
2017-11-26T10:38:34.896Z,2.94
2017-11-26T10:39:44.902Z,2.93
2017-11-26T10:40:54.912Z,2.98
2017-11-26T10:42:04.651Z,2.88
2017-11-26T10:43:14.673Z,2.91
2017-11-26T10:44:24.700Z,2.98
2017-11-26T10:45:34.715Z,2.91
2017-11-26T10:46:44.458Z,3
2017-11-26T10:47:53.930Z,2.88
2017-11-26T10:49:03.668Z,2.91
2017-11-26T10:50:13.682Z,2.98
2017-11-26T10:51:23.764Z,2.94
2017-11-26T10:52:33.781Z,2.97
2017-11-26T10:53:43.251Z,2.9
2017-11-26T10:54:53.022Z,2.97
2017-11-26T10:56:03.037Z,2.94
2017-11-26T10:57:13.043Z,2.94
2017-11-26T10:58:23.063Z,2.98
2017-11-26T10:59:32.837Z,3.01
2017-11-26T11:00:42.577Z,2.98
2017-11-26T11:01:52.604Z,2.94
2017-11-26T11:03:02.376Z,2.88
2017-11-26T11:04:12.394Z,2.98
2017-11-26T11:05:22.136Z,2.88
2017-11-26T11:06:31.884Z,2.93
2017-11-26T11:07:41.642Z,2.98
2017-11-26T11:08:51.381Z,3.06
2017-11-26T11:10:01.403Z,3.09
2017-11-26T11:11:11.146Z,3.12
2017-11-26T11:12:20.882Z,3.12
2017-11-26T11:13:30.624Z,3.09
2017-11-26T11:14:40.096Z,3.08
2017-11-26T11:15:50.108Z,3.06
2017-11-26T11:17:00.136Z,3.01
2017-11-26T11:18:10.188Z,3.03
2017-11-26T11:19:20.220Z,3.12
2017-11-26T11:20:30.269Z,3.11
2017-11-26T11:21:40.015Z,3.01
2017-11-26T11:22:50.027Z,3.03
2017-11-26T11:24:00.045Z,3
2017-11-26T11:25:09.791Z,3.06
2017-11-26T11:26:19.803Z,3.11
2017-11-26T11:27:29.541Z,3.12
2017-11-26T11:28:39.550Z,3.18
2017-11-26T11:29:49.565Z,3.22
2017-11-26T11:30:59.581Z,3.13
2017-11-26T11:32:09.595Z,3.11
2017-11-26T11:33:19.621Z,3.11
2017-11-26T11:34:29.636Z,3.11
2017-11-26T11:35:39.648Z,3.12
2017-11-26T11:36:49.659Z,3.12
2017-11-26T11:37:59.408Z,3.16
2017-11-26T11:39:09.414Z,3.18
2017-11-26T11:40:19.446Z,3.11
2017-11-26T11:41:29.191Z,3.05
2017-11-26T11:42:39.200Z,3.01
2017-11-26T11:43:48.940Z,3.03
2017-11-26T11:44:58.986Z,3.08
2017-11-26T11:46:09.010Z,3
2017-11-26T11:47:18.746Z,3
2017-11-26T11:48:28.488Z,3.01
2017-11-26T11:49:38.241Z,3.03
2017-11-26T11:50:48.255Z,3.03
2017-11-26T11:51:58.276Z,3.16
2017-11-26T11:53:08.284Z,3.12
2017-11-26T11:54:18.304Z,3.11
2017-11-26T11:55:28.317Z,3.21
2017-11-26T11:56:38.334Z,3.16
2017-11-26T11:57:48.078Z,3.18
2017-11-26T11:58:57.279Z,3.16
2017-11-26T12:00:07.309Z,3.18
2017-11-26T12:01:17.325Z,3.18
2017-11-26T12:02:27.333Z,3.18
2017-11-26T12:03:37.352Z,3.13
2017-11-26T12:04:47.363Z,3.13
2017-11-26T12:05:57.387Z,3.09
2017-11-26T12:07:09.144Z,3.12
2017-11-26T12:08:18.614Z,3.05
2017-11-26T12:09:28.634Z,3.03
2017-11-26T12:10:38.648Z,3.09
2017-11-26T12:11:48.694Z,3.09
2017-11-26T12:12:58.712Z,3.22
2017-11-26T12:14:08.449Z,3.21
2017-11-26T12:15:18.466Z,3.36
2017-11-26T12:16:28.486Z,3.46
2017-11-26T12:17:38.222Z,3.34
2017-11-26T12:18:48.229Z,3.37
2017-11-26T12:19:58.262Z,3.43
2017-11-26T12:21:08.268Z,3.49
2017-11-26T12:22:18.293Z,3.27
2017-11-26T12:23:28.044Z,3.4
2017-11-26T12:24:37.794Z,3.37
2017-11-26T12:25:47.530Z,3.22
2017-11-26T12:26:57.563Z,3.18
2017-11-26T12:28:07.585Z,3.18
2017-11-26T12:29:17.355Z,3.26
2017-11-26T12:30:27.108Z,3.29
2017-11-26T12:31:37.141Z,3.24
2017-11-26T12:32:46.892Z,3.31
2017-11-26T12:33:56.930Z,3.33
2017-11-26T12:35:06.672Z,3.45
2017-11-26T12:36:16.718Z,3.4
2017-11-26T12:37:26.456Z,3.3
2017-11-26T12:38:36.475Z,3.43
2017-11-26T12:39:46.491Z,3.48
2017-11-26T12:40:56.500Z,3.52
2017-11-26T12:42:10.538Z,3.48
2017-11-26T12:43:20.555Z,3.53
2017-11-26T12:44:30.302Z,3.55
2017-11-26T12:45:40.327Z,3.66
2017-11-26T12:46:50.384Z,3.58
2017-11-26T12:48:00.146Z,3.67
2017-11-26T12:49:09.890Z,3.74
2017-11-26T12:50:19.898Z,3.78
2017-11-26T12:51:29.908Z,3.81
2017-11-26T12:52:39.915Z,3.78
2017-11-26T12:53:49.932Z,3.86
2017-11-26T12:54:59.987Z,3.84
2017-11-26T12:56:10.002Z,3.91
2017-11-26T12:57:20.028Z,3.78
2017-11-26T12:58:30.045Z,3.82
2017-11-26T12:59:39.788Z,3.82
2017-11-26T13:00:49.537Z,3.82
2017-11-26T13:01:59.273Z,3.77
2017-11-26T13:03:08.750Z,3.85
2017-11-26T13:04:18.512Z,3.88
2017-11-26T13:05:28.584Z,3.84
2017-11-26T13:06:38.620Z,3.81
2017-11-26T13:07:48.663Z,3.76
2017-11-26T13:08:58.455Z,3.76
2017-11-26T13:10:08.467Z,3.84
2017-11-26T13:11:18.490Z,3.76
2017-11-26T13:12:28.503Z,3.76
2017-11-26T13:13:38.520Z,3.71
2017-11-26T13:14:48.546Z,3.76
2017-11-26T13:15:58.557Z,3.76
2017-11-26T13:17:08.563Z,3.78
2017-11-26T13:18:18.313Z,3.74
2017-11-26T13:19:28.076Z,3.78
2017-11-26T13:20:37.827Z,3.84
2017-11-26T13:21:47.841Z,3.76
2017-11-26T13:22:57.864Z,3.76
2017-11-26T13:24:07.881Z,3.81
2017-11-26T13:25:17.942Z,3.78
2017-11-26T13:26:27.973Z,3.82
2017-11-26T13:27:37.982Z,3.76
2017-11-26T13:28:48.000Z,3.84
2017-11-26T13:29:58.010Z,3.76
2017-11-26T13:31:07.476Z,3.76
2017-11-26T13:32:17.492Z,3.82
2017-11-26T13:33:27.514Z,3.76
2017-11-26T13:34:37.545Z,3.77
2017-11-26T13:35:47.559Z,3.74
2017-11-26T13:36:57.569Z,3.77
2017-11-26T13:38:07.099Z,3.74
2017-11-26T13:39:16.720Z,3.7
2017-11-26T13:40:26.990Z,3.67
2017-11-26T13:41:36.566Z,3.7
2017-11-26T13:42:46.213Z,3.7
2017-11-26T13:43:56.286Z,3.7
2017-11-26T13:45:06.105Z,3.68
2017-11-26T13:46:16.014Z,3.64
2017-11-26T13:47:25.876Z,3.71
2017-11-26T13:48:35.721Z,3.58
2017-11-26T13:49:45.463Z,3.68
2017-11-26T13:50:55.471Z,3.61
2017-11-26T13:52:05.227Z,3.58
2017-11-26T13:53:14.972Z,3.63
2017-11-26T13:54:24.983Z,3.59
2017-11-26T13:55:34.990Z,3.63
2017-11-26T13:56:45.031Z,3.67
2017-11-26T13:57:54.777Z,3.61
2017-11-26T13:59:04.832Z,3.61
2017-11-26T14:00:14.570Z,3.59
2017-11-26T14:01:24.579Z,3.64
2017-11-26T14:02:34.311Z,3.61
2017-11-26T14:03:44.350Z,3.61
2017-11-26T14:04:54.099Z,3.56
2017-11-26T14:06:03.841Z,3.64
2017-11-26T14:07:13.854Z,3.66
2017-11-26T14:08:23.894Z,3.55
2017-11-26T14:09:33.920Z,3.59
2017-11-26T14:10:43.927Z,3.59
2017-11-26T14:11:53.665Z,3.59
2017-11-26T14:13:03.684Z,3.59
2017-11-26T14:14:13.424Z,3.59
2017-11-26T14:15:23.437Z,3.53
2017-11-26T14:16:33.445Z,3.58
2017-11-26T14:17:43.189Z,3.49
2017-11-26T14:18:53.206Z,3.53
2017-11-26T14:20:03.241Z,3.58
2017-11-26T14:21:12.980Z,3.55
2017-11-26T14:22:22.991Z,3.48
2017-11-26T14:23:33.066Z,3.45
2017-11-26T14:24:43.074Z,3.43
2017-11-26T14:25:53.081Z,3.46
2017-11-26T14:27:03.096Z,3.45
2017-11-26T14:28:12.869Z,3.31
2017-11-26T14:29:22.342Z,3.27
2017-11-26T14:30:32.376Z,3.43
2017-11-26T14:31:42.385Z,3.31
2017-11-26T14:32:52.388Z,3.31
2017-11-26T14:34:02.417Z,3.31
2017-11-26T14:35:12.167Z,3.33
2017-11-26T14:36:22.188Z,3.29
2017-11-26T14:37:31.714Z,3.37
2017-11-26T14:38:41.726Z,3.4
2017-11-26T14:39:51.482Z,3.31
2017-11-26T14:41:01.217Z,3.31
2017-11-26T14:42:11.252Z,3.27
2017-11-26T14:43:21.260Z,3.3
2017-11-26T14:44:31.275Z,3.21
2017-11-26T14:45:41.322Z,3.29
2017-11-26T14:46:51.329Z,3.29
2017-11-26T14:48:01.331Z,3.31
2017-11-26T14:49:11.341Z,3.29
2017-11-26T14:50:21.350Z,3.16
2017-11-26T14:51:31.092Z,3.21
2017-11-26T14:52:41.101Z,3.27
2017-11-26T14:53:51.116Z,3.3
2017-11-26T14:55:01.133Z,3.18
2017-11-26T14:56:11.167Z,3.24
2017-11-26T14:57:21.178Z,3.22
2017-11-26T14:58:31.243Z,3.3
2017-11-26T14:59:41.251Z,3.19
2017-11-26T15:00:50.996Z,3.24
2017-11-26T15:02:01.013Z,3.24
2017-11-26T15:03:11.024Z,3.3
2017-11-26T15:04:21.033Z,3.24
2017-11-26T15:05:31.038Z,3.29
2017-11-26T15:06:41.068Z,3.21
2017-11-26T15:07:50.822Z,3.29
2017-11-26T15:09:00.846Z,3.19
2017-11-26T15:10:10.854Z,3.24
2017-11-26T15:11:20.905Z,3.24
2017-11-26T15:12:30.913Z,3.16
2017-11-26T15:13:40.926Z,3.13
2017-11-26T15:14:50.935Z,3.19
2017-11-26T15:16:00.967Z,3.15
2017-11-26T15:17:10.731Z,3.16
2017-11-26T15:18:20.739Z,3.19
2017-11-26T15:19:30.746Z,3.21
2017-11-26T15:20:40.489Z,3.16
2017-11-26T15:21:50.525Z,3.16
2017-11-26T15:23:00.553Z,3.15
2017-11-26T15:24:10.561Z,3.18
2017-11-26T15:25:20.570Z,3.13
2017-11-26T15:26:30.592Z,3.18
2017-11-26T15:27:40.624Z,3.19
2017-11-26T15:28:50.635Z,3.13
2017-11-26T15:30:00.379Z,3.09
2017-11-26T15:31:10.391Z,3.12
2017-11-26T15:32:20.400Z,3.16
2017-11-26T15:33:30.438Z,3.16